createdAt,value
2022-09-12T00:01:51.724Z,4.10
2022-09-12T00:04:22.520Z,4.70
2022-09-12T00:06:53.871Z,4.10
2022-09-12T00:09:24.613Z,3.80
2022-09-12T00:11:55.253Z,4.40
2022-09-12T00:14:25.990Z,5.00
2022-09-12T00:17:00.700Z,4.40
2022-09-12T00:19:31.946Z,6.00
2022-09-12T00:22:02.655Z,4.90
2022-09-12T00:24:34.530Z,4.00
2022-09-12T00:27:05.626Z,5.40
2022-09-12T00:29:36.550Z,4.10
2022-09-12T00:32:07.346Z,3.50
2022-09-12T00:34:38.916Z,4.40
2022-09-12T00:37:09.557Z,3.80
2022-09-12T00:39:40.456Z,4.60
2022-09-12T00:42:13.303Z,5.40
2022-09-12T00:44:52.923Z,4.60
2022-09-12T00:50:02.543Z,3.50
2022-09-12T00:52:38.337Z,4.20
2022-09-12T00:55:14.278Z,4.30
2022-09-12T00:57:51.407Z,3.90
2022-09-12T01:00:24.264Z,4.40
2022-09-12T01:02:58.606Z,4.80
2022-09-12T01:05:31.826Z,4.40
2022-09-12T01:08:04.797Z,3.50
2022-09-12T01:10:38.816Z,4.50
2022-09-12T01:13:11.391Z,4.10
2022-09-12T01:15:42.848Z,4.30
2022-09-12T01:18:26.084Z,5.10
2022-09-12T01:21:17.104Z,4.40
2022-09-12T01:24:34.951Z,3.40
2022-09-12T01:27:45.487Z,4.50
2022-09-12T01:30:45.960Z,3.50
2022-09-12T01:33:36.021Z,5.00
2022-09-12T01:36:35.074Z,3.90
2022-09-12T01:39:12.026Z,4.10
2022-09-12T01:41:54.563Z,4.60
2022-09-12T01:44:36.439Z,3.30
2022-09-12T01:47:11.190Z,4.40
2022-09-12T01:49:52.081Z,4.60
2022-09-12T01:52:27.813Z,4.00
2022-09-12T01:55:06.552Z,3.80
2022-09-12T01:57:45.792Z,3.30
2022-09-12T02:00:17.451Z,3.50
2022-09-12T02:02:53.198Z,4.00
2022-09-12T02:05:30.281Z,3.30
2022-09-12T02:08:08.208Z,4.10
2022-09-12T02:10:47.621Z,3.10
2022-09-12T02:13:25.037Z,4.00
2022-09-12T02:16:00.468Z,4.40
2022-09-12T02:18:34.555Z,4.10
2022-09-12T02:21:09.104Z,3.70
2022-09-12T02:23:43.612Z,4.00
2022-09-12T02:26:21.724Z,4.60
2022-09-12T02:28:52.802Z,3.60
2022-09-12T02:31:28.860Z,3.50
2022-09-12T02:34:10.402Z,4.30
2022-09-12T02:36:51.183Z,4.50
2022-09-12T02:39:22.032Z,3.70
2022-09-12T02:41:54.870Z,3.60
2022-09-12T02:44:28.204Z,5.70
2022-09-12T02:47:04.576Z,4.60
2022-09-12T02:49:35.732Z,4.70
2022-09-12T02:52:07.019Z,5.20
2022-09-12T02:54:38.307Z,4.80
2022-09-12T02:57:22.387Z,3.00
2022-09-12T02:59:57.196Z,4.00
2022-09-12T03:02:39.168Z,5.00
2022-09-12T03:05:26.023Z,5.00
2022-09-12T03:08:22.722Z,3.80
2022-09-12T03:11:09.948Z,4.00
2022-09-12T03:13:52.543Z,5.20
2022-09-12T03:16:30.821Z,4.20
2022-09-12T03:19:10.828Z,4.00
2022-09-12T03:21:54.141Z,4.80
2022-09-12T03:24:33.035Z,3.70
2022-09-12T03:27:11.362Z,4.00
2022-09-12T03:29:44.801Z,4.00
2022-09-12T03:32:15.704Z,3.80
2022-09-12T03:34:46.648Z,4.00
2022-09-12T03:37:17.427Z,3.40
2022-09-12T03:39:48.140Z,5.10
2022-09-12T03:42:19.097Z,6.10
2022-09-12T03:44:49.803Z,6.70
2022-09-12T03:47:20.542Z,3.90
2022-09-12T03:49:52.620Z,5.40
2022-09-12T03:52:23.373Z,10.20
2022-09-12T03:54:54.603Z,6.80
2022-09-12T03:57:25.212Z,6.90
2022-09-12T03:59:55.869Z,5.90
2022-09-12T04:02:26.755Z,5.30
2022-09-12T04:04:57.651Z,3.90
2022-09-12T04:07:28.596Z,5.20
2022-09-12T04:09:59.279Z,5.40
2022-09-12T04:12:30.182Z,5.40
2022-09-12T04:15:00.910Z,19.70
2022-09-12T04:17:31.855Z,40.10
2022-09-12T04:20:02.677Z,38.60
2022-09-12T04:22:33.944Z,35.20
2022-09-12T04:25:05.373Z,34.90
2022-09-12T04:27:36.766Z,34.20
2022-09-12T04:30:09.809Z,30.20
2022-09-12T04:32:41.604Z,25.80
2022-09-12T04:35:14.093Z,25.00
2022-09-12T04:37:44.750Z,21.60
2022-09-12T04:40:15.677Z,23.20
2022-09-12T04:42:46.499Z,22.50
2022-09-12T04:45:17.193Z,22.00
2022-09-12T04:47:47.825Z,21.80
2022-09-12T04:50:18.737Z,18.60
2022-09-12T04:52:54.049Z,18.80
2022-09-12T04:55:26.262Z,15.60
2022-09-12T04:57:56.871Z,15.90
2022-09-12T05:00:27.808Z,15.10
2022-09-12T05:02:58.549Z,14.50
2022-09-12T05:05:29.255Z,13.90
2022-09-12T05:07:59.969Z,12.10
2022-09-12T05:10:31.372Z,12.30
2022-09-12T05:13:02.317Z,11.40
2022-09-12T05:15:33.138Z,12.90
2022-09-12T05:18:03.800Z,11.40
2022-09-12T05:20:35.863Z,10.00
2022-09-12T05:23:06.508Z,10.00
2022-09-12T05:25:37.120Z,7.30
2022-09-12T05:28:07.842Z,8.70
2022-09-12T05:30:38.604Z,8.50
2022-09-12T05:33:09.370Z,7.10
2022-09-12T05:35:40.486Z,7.60
2022-09-12T05:38:11.176Z,8.10
2022-09-12T05:40:41.818Z,8.50
2022-09-12T05:43:13.323Z,6.60
2022-09-12T05:45:44.200Z,8.60
2022-09-12T05:48:14.927Z,6.80
2022-09-12T05:50:46.313Z,6.20
2022-09-12T05:53:17.445Z,7.00
2022-09-12T05:55:48.065Z,6.20
2022-09-12T05:58:18.983Z,6.00
2022-09-12T06:00:49.918Z,6.90
2022-09-12T06:03:21.067Z,6.20
2022-09-12T06:05:51.677Z,5.90
2022-09-12T06:08:22.685Z,7.10
2022-09-12T06:10:53.299Z,6.80
2022-09-12T06:13:24.396Z,5.70
2022-09-12T06:15:55.526Z,5.40
2022-09-12T06:18:26.231Z,5.90
2022-09-12T06:20:56.866Z,5.00
2022-09-12T06:23:27.994Z,3.90
2022-09-12T06:25:58.633Z,5.00
2022-09-12T06:28:30.109Z,4.30
2022-09-12T06:31:07.469Z,4.90
2022-09-12T06:33:39.748Z,4.40
2022-09-12T06:36:13.362Z,5.30
2022-09-12T06:38:44.165Z,5.50
2022-09-12T06:41:16.156Z,4.60
2022-09-12T06:43:46.794Z,5.00
2022-09-12T06:46:17.793Z,4.20
2022-09-12T06:48:48.899Z,4.20
2022-09-12T06:51:21.281Z,4.20
2022-09-12T06:53:52.715Z,4.00
2022-09-12T06:56:25.195Z,4.20
2022-09-12T06:58:57.380Z,4.50
2022-09-12T07:01:29.672Z,3.50
2022-09-12T07:04:02.316Z,4.90
2022-09-12T07:06:37.016Z,4.70
2022-09-12T07:09:10.075Z,4.10
2022-09-12T07:11:43.330Z,4.00
2022-09-12T07:14:15.540Z,4.50
2022-09-12T07:16:46.467Z,4.20
2022-09-12T07:19:17.191Z,3.80
2022-09-12T07:21:50.264Z,3.70
2022-09-12T07:24:20.912Z,4.10
2022-09-12T07:26:51.647Z,4.80
2022-09-12T07:29:38.192Z,3.80
2022-09-12T07:32:09.374Z,4.30
2022-09-12T07:34:40.350Z,3.70
2022-09-12T07:37:11.025Z,4.00
2022-09-12T07:39:41.858Z,3.90
2022-09-12T07:42:13.288Z,4.40
2022-09-12T07:44:44.565Z,3.60
2022-09-12T07:47:15.461Z,5.70
2022-09-12T07:49:46.210Z,4.40
2022-09-12T07:52:16.841Z,4.10
2022-09-12T07:54:47.878Z,4.20
2022-09-12T07:57:18.657Z,3.10
2022-09-12T07:59:52.994Z,4.10
2022-09-12T08:02:24.140Z,3.90
2022-09-12T08:04:54.866Z,3.50
2022-09-12T08:07:25.976Z,3.50
2022-09-12T08:09:57.031Z,4.90
2022-09-12T08:12:28.485Z,3.70
2022-09-12T08:14:59.314Z,4.60
2022-09-12T08:17:30.656Z,4.10
2022-09-12T08:20:01.564Z,3.70
2022-09-12T08:22:33.224Z,3.70
2022-09-12T08:25:04.239Z,4.00
2022-09-12T08:27:34.950Z,4.00
2022-09-12T08:30:06.857Z,4.40
2022-09-12T08:32:38.719Z,3.80
2022-09-12T08:35:11.075Z,4.10
2022-09-12T08:37:41.742Z,3.50
2022-09-12T08:40:19.071Z,3.50
2022-09-12T08:43:01.765Z,2.90
2022-09-12T08:45:39.624Z,3.10
2022-09-12T08:48:13.909Z,3.10
2022-09-12T08:50:49.823Z,3.60
2022-09-12T08:53:24.488Z,4.00
2022-09-12T08:55:59.406Z,3.10
2022-09-12T08:58:36.911Z,3.40
2022-09-12T09:01:13.952Z,3.50
2022-09-12T09:04:06.027Z,3.60
2022-09-12T09:06:56.788Z,3.60
2022-09-12T09:09:36.553Z,3.20
2022-09-12T09:12:13.745Z,3.40
2022-09-12T09:15:14.825Z,3.80
2022-09-12T09:17:49.989Z,3.00
2022-09-12T09:20:30.133Z,3.30
2022-09-12T09:23:08.476Z,3.10
2022-09-12T09:25:50.244Z,3.00
2022-09-12T09:28:26.779Z,3.30
2022-09-12T09:30:57.721Z,2.80
2022-09-12T09:33:34.289Z,2.50
2022-09-12T09:36:18.287Z,3.00
2022-09-12T09:38:54.318Z,3.00
2022-09-12T09:41:43.917Z,3.00
2022-09-12T09:44:15.085Z,3.20
2022-09-12T09:46:45.915Z,4.10
2022-09-12T09:49:18.182Z,2.90
2022-09-12T09:51:49.512Z,2.60
2022-09-12T09:54:26.043Z,2.80
2022-09-12T09:56:57.351Z,2.90
2022-09-12T09:59:32.196Z,2.60
2022-09-12T10:02:23.253Z,2.90
2022-09-12T10:04:59.516Z,2.70
2022-09-12T10:07:30.343Z,2.50
2022-09-12T10:10:19.375Z,2.60
2022-09-12T10:12:50.286Z,2.50
2022-09-12T10:15:23.055Z,3.70
2022-09-12T10:17:55.547Z,2.60
2022-09-12T10:20:39.140Z,2.50
2022-09-12T10:23:31.504Z,3.10
2022-09-12T10:26:04.326Z,3.10
2022-09-12T10:28:39.415Z,2.70
2022-09-12T10:31:15.151Z,2.70
2022-09-12T10:33:52.896Z,2.30
2022-09-12T10:36:24.812Z,2.50
2022-09-12T10:38:59.234Z,2.50
2022-09-12T10:41:39.942Z,2.60
2022-09-12T10:44:16.346Z,3.10
2022-09-12T10:46:47.393Z,2.30
2022-09-12T10:49:24.618Z,2.50
2022-09-12T10:51:56.868Z,2.30
2022-09-12T10:54:29.716Z,2.00
2022-09-12T10:57:17.081Z,2.20
2022-09-12T11:00:05.352Z,2.40
2022-09-12T11:02:49.733Z,3.10
2022-09-12T11:05:36.943Z,2.60
2022-09-12T11:08:20.251Z,2.30
2022-09-12T11:10:59.953Z,2.40
2022-09-12T11:13:54.304Z,2.50
2022-09-12T11:16:35.849Z,2.20
2022-09-12T11:19:22.003Z,2.20
2022-09-12T11:22:09.579Z,2.00
2022-09-12T11:25:08.918Z,2.20
2022-09-12T11:27:56.189Z,2.70
2022-09-12T11:30:27.938Z,2.40
2022-09-12T11:33:16.093Z,1.90
2022-09-12T11:35:55.281Z,2.50
2022-09-12T11:41:05.000Z,2.00
2022-09-12T11:43:40.941Z,2.70
2022-09-12T11:46:19.283Z,2.40
2022-09-12T11:48:57.967Z,2.10
2022-09-12T11:51:31.956Z,2.10
2022-09-12T11:54:13.131Z,2.00
2022-09-12T11:56:46.600Z,2.30
2022-09-12T12:01:56.487Z,2.40
2022-09-12T12:04:35.919Z,2.40
2022-09-12T12:07:08.687Z,2.10
2022-09-12T12:09:47.347Z,2.10
2022-09-12T12:12:24.922Z,2.20
2022-09-12T12:14:57.811Z,2.20
2022-09-12T12:17:29.829Z,1.80
2022-09-12T12:20:08.156Z,2.20
2022-09-12T12:22:52.027Z,2.40
2022-09-12T12:25:42.702Z,1.70
2022-09-12T12:28:34.864Z,2.20
2022-09-12T12:31:06.019Z,2.10
2022-09-12T12:33:55.844Z,2.00
2022-09-12T12:36:44.605Z,1.70
2022-09-12T12:40:05.837Z,2.00
2022-09-12T12:43:06.230Z,2.40
2022-09-12T12:46:04.595Z,2.80
2022-09-12T12:48:45.756Z,2.10
2022-09-12T12:51:36.562Z,2.40
2022-09-12T12:54:28.455Z,1.90
2022-09-12T12:57:16.790Z,2.00
2022-09-12T12:59:52.949Z,2.10
2022-09-12T13:02:30.416Z,1.90
2022-09-12T13:05:04.106Z,2.00
2022-09-12T13:07:38.389Z,2.60
2022-09-12T13:10:23.335Z,1.60
2022-09-12T13:12:54.921Z,1.70
2022-09-12T13:15:50.596Z,2.30
2022-09-12T13:18:27.883Z,2.50
2022-09-12T13:21:10.318Z,2.00
2022-09-12T13:23:41.360Z,1.80
2022-09-12T13:26:22.009Z,1.90
2022-09-12T13:29:09.961Z,1.90
2022-09-12T13:31:45.367Z,2.10
2022-09-12T13:34:22.192Z,2.00
2022-09-12T13:37:11.454Z,2.30
2022-09-12T13:39:49.726Z,1.80
2022-09-12T13:42:40.945Z,2.20
2022-09-12T13:45:20.719Z,2.10
2022-09-12T13:47:58.478Z,1.90
2022-09-12T13:50:32.994Z,2.10
2022-09-12T13:53:08.381Z,2.30
2022-09-12T13:55:41.762Z,2.30
2022-09-12T13:58:21.152Z,1.90
2022-09-12T14:01:03.870Z,2.00
2022-09-12T14:03:58.929Z,2.00
2022-09-12T14:06:29.925Z,1.70
2022-09-12T14:09:02.543Z,1.90
2022-09-12T14:11:35.010Z,2.50
2022-09-12T14:14:19.886Z,2.30
2022-09-12T14:16:54.908Z,6.30
2022-09-12T14:19:29.378Z,6.20
2022-09-12T14:22:02.262Z,12.90
2022-09-12T14:24:33.535Z,11.90
2022-09-12T14:27:05.741Z,7.70
2022-09-12T14:29:36.573Z,8.80
2022-09-12T14:32:18.691Z,7.80
2022-09-12T14:35:19.458Z,10.30
2022-09-12T14:37:53.163Z,5.70
2022-09-12T14:40:25.092Z,7.70
2022-09-12T14:43:01.027Z,4.70
2022-09-12T14:45:33.649Z,5.80
2022-09-12T14:48:05.672Z,7.50
2022-09-12T14:50:38.248Z,8.20
2022-09-12T14:53:24.959Z,5.20
2022-09-12T14:56:00.940Z,3.50
2022-09-12T14:58:33.399Z,5.70
2022-09-12T15:01:22.494Z,6.90
2022-09-12T15:03:56.539Z,6.80
2022-09-12T15:06:31.507Z,3.70
2022-09-12T15:09:04.411Z,4.90
2022-09-12T15:11:35.300Z,4.70
2022-09-12T15:14:15.806Z,4.10
2022-09-12T15:16:46.624Z,4.20
2022-09-12T15:19:17.922Z,5.50
2022-09-12T15:21:48.840Z,3.30
2022-09-12T15:24:19.842Z,3.50
2022-09-12T15:26:51.324Z,4.70
2022-09-12T15:29:22.738Z,3.40
2022-09-12T15:31:54.223Z,4.20
2022-09-12T15:34:25.043Z,4.60
2022-09-12T15:36:56.011Z,2.70
2022-09-12T15:39:27.592Z,3.40
2022-09-12T15:41:58.725Z,2.90
2022-09-12T15:44:29.553Z,3.50
2022-09-12T15:47:00.387Z,3.10
2022-09-12T15:49:31.238Z,3.10
2022-09-12T15:52:02.613Z,2.40
2022-09-12T15:54:33.528Z,2.50
2022-09-12T15:57:04.370Z,2.70
2022-09-12T15:59:35.312Z,2.50
2022-09-12T16:02:06.322Z,2.70
2022-09-12T16:04:37.332Z,2.10
2022-09-12T16:07:08.347Z,2.20
2022-09-12T16:09:39.650Z,3.00
2022-09-12T16:12:10.569Z,3.00
2022-09-12T16:14:41.307Z,2.40
2022-09-12T16:17:13.259Z,2.40
2022-09-12T16:19:44.184Z,2.20
2022-09-12T16:22:15.130Z,2.90
2022-09-12T16:24:45.883Z,2.60
2022-09-12T16:27:17.745Z,2.70
2022-09-12T16:29:48.689Z,2.00
2022-09-12T16:32:19.612Z,3.00
2022-09-12T16:34:51.013Z,1.90
2022-09-12T16:37:22.058Z,2.20
2022-09-12T16:39:52.785Z,1.90
2022-09-12T16:42:23.608Z,2.10
2022-09-12T16:44:54.332Z,2.90
2022-09-12T16:47:25.193Z,2.00
2022-09-12T16:49:56.009Z,2.20
2022-09-12T16:52:26.853Z,2.10
2022-09-12T16:54:57.710Z,2.00
2022-09-12T16:57:28.538Z,2.90
2022-09-12T16:59:59.474Z,3.00
2022-09-12T17:02:30.260Z,2.20
2022-09-12T17:05:01.297Z,1.80
2022-09-12T17:07:32.115Z,2.20
2022-09-12T17:10:02.937Z,4.20
2022-09-12T17:12:33.573Z,2.60
2022-09-12T17:15:05.109Z,3.90
2022-09-12T17:17:35.983Z,3.80
2022-09-12T17:20:07.813Z,4.50
2022-09-12T17:22:38.593Z,3.70
2022-09-12T17:25:11.120Z,2.90
2022-09-12T17:27:42.037Z,2.80
2022-09-12T17:30:14.878Z,3.20
2022-09-12T17:32:45.539Z,2.40
2022-09-12T17:35:16.732Z,2.30
2022-09-12T17:37:47.774Z,2.00
2022-09-12T17:40:19.086Z,2.50
2022-09-12T17:42:50.322Z,5.40
2022-09-12T17:45:21.409Z,2.70
2022-09-12T17:47:52.590Z,2.30
2022-09-12T17:50:32.459Z,2.30
2022-09-12T17:53:05.238Z,2.00
2022-09-12T17:55:39.568Z,3.30
2022-09-12T17:58:11.036Z,2.50
2022-09-12T18:00:59.489Z,2.70
2022-09-12T18:03:30.270Z,2.40
2022-09-12T18:06:01.077Z,2.10
2022-09-12T18:08:31.768Z,3.20
2022-09-12T18:11:08.498Z,2.60
2022-09-12T18:13:39.544Z,2.00
2022-09-12T18:16:12.509Z,2.30
2022-09-12T18:18:43.937Z,2.70
2022-09-12T18:21:15.053Z,2.40
2022-09-12T18:23:45.964Z,3.10
2022-09-12T18:26:17.128Z,3.40
2022-09-12T18:28:47.929Z,2.50
2022-09-12T18:31:21.184Z,1.60
2022-09-12T18:33:52.659Z,2.10
2022-09-12T18:36:23.997Z,2.50
2022-09-12T18:38:54.850Z,2.00
2022-09-12T18:41:26.927Z,2.20
2022-09-12T18:43:59.997Z,2.80
2022-09-12T18:46:33.014Z,2.10
2022-09-12T18:49:05.080Z,2.40
2022-09-12T18:51:40.197Z,3.00
2022-09-12T18:54:15.696Z,3.30
2022-09-12T18:56:47.763Z,2.40
2022-09-12T18:59:19.065Z,2.00
2022-09-12T19:01:50.411Z,2.80
2022-09-12T19:04:21.370Z,2.80
2022-09-12T19:06:52.215Z,2.40
2022-09-12T19:09:23.872Z,2.50
2022-09-12T19:11:54.864Z,2.40
2022-09-12T19:14:27.466Z,2.10
2022-09-12T19:16:58.443Z,2.30
2022-09-12T19:19:29.350Z,1.90
2022-09-12T19:22:01.420Z,2.30
2022-09-12T19:24:32.290Z,2.00
2022-09-12T19:27:03.209Z,2.20
2022-09-12T19:29:34.158Z,2.50
2022-09-12T19:32:05.853Z,1.70
2022-09-12T19:34:36.546Z,2.70
2022-09-12T19:37:07.620Z,2.20
2022-09-12T19:39:38.288Z,3.70
2022-09-12T19:42:09.482Z,2.40
2022-09-12T19:44:40.244Z,3.10
2022-09-12T19:47:11.394Z,2.20
2022-09-12T19:49:42.543Z,2.00
2022-09-12T19:52:16.877Z,2.10
2022-09-12T19:54:48.559Z,3.60
2022-09-12T19:57:19.359Z,2.20
2022-09-12T19:59:50.245Z,2.60
2022-09-12T20:02:21.010Z,2.10
2022-09-12T20:04:51.979Z,2.30
2022-09-12T20:07:22.856Z,2.80
2022-09-12T20:09:55.151Z,2.50
2022-09-12T20:12:26.162Z,2.80
2022-09-12T20:14:57.134Z,2.20
2022-09-12T20:17:28.232Z,2.00
2022-09-12T20:19:59.086Z,3.00
2022-09-12T20:22:30.061Z,2.30
2022-09-12T20:25:01.060Z,2.30
2022-09-12T20:27:31.897Z,2.10
2022-09-12T20:30:02.777Z,2.30
2022-09-12T20:32:33.682Z,2.40
2022-09-12T20:35:04.726Z,2.70
2022-09-12T20:37:36.033Z,3.20
2022-09-12T20:40:08.621Z,2.50
2022-09-12T20:42:39.901Z,2.40
2022-09-12T20:45:11.919Z,2.30
2022-09-12T20:47:42.591Z,2.50
2022-09-12T20:50:14.684Z,2.60
2022-09-12T20:52:45.459Z,2.70
2022-09-12T20:55:16.366Z,2.50
2022-09-12T20:57:47.104Z,2.90
2022-09-12T21:00:18.733Z,3.10
2022-09-12T21:02:50.857Z,4.30
2022-09-12T21:05:21.872Z,2.30
2022-09-12T21:07:52.620Z,3.10
2022-09-12T21:10:23.278Z,2.60
2022-09-12T21:12:54.805Z,2.90
2022-09-12T21:15:25.462Z,4.10
2022-09-12T21:17:56.483Z,2.50
2022-09-12T21:20:27.222Z,3.70
2022-09-12T21:22:57.926Z,3.20
2022-09-12T21:25:29.213Z,2.70
2022-09-12T21:27:59.926Z,3.80
2022-09-12T21:30:30.746Z,3.80
2022-09-12T21:33:01.431Z,4.20
2022-09-12T21:35:32.165Z,3.30
2022-09-12T21:38:02.870Z,3.90
2022-09-12T21:40:33.946Z,3.30
2022-09-12T21:43:08.113Z,3.80
2022-09-12T21:45:41.555Z,3.10
2022-09-12T21:48:12.311Z,3.10
2022-09-12T21:50:43.042Z,3.80
2022-09-12T21:53:13.797Z,3.50
2022-09-12T21:55:44.728Z,3.80
2022-09-12T21:58:15.485Z,5.30
2022-09-12T22:00:46.670Z,3.50
2022-09-12T22:03:18.164Z,3.20
2022-09-12T22:05:57.450Z,3.90
2022-09-12T22:08:28.694Z,3.40
2022-09-12T22:11:02.298Z,3.20
2022-09-12T22:13:33.859Z,4.90
2022-09-12T22:16:05.231Z,3.10
2022-09-12T22:18:36.956Z,3.10
2022-09-12T22:21:09.852Z,3.20
2022-09-12T22:23:58.635Z,3.80
2022-09-12T22:26:29.589Z,3.00
2022-09-12T22:29:01.153Z,3.90
2022-09-12T22:31:32.115Z,4.00
2022-09-12T22:34:03.589Z,3.70
2022-09-12T22:36:38.256Z,3.80
2022-09-12T22:39:10.062Z,3.80
2022-09-12T22:41:40.881Z,5.40
2022-09-12T22:44:12.317Z,4.30
2022-09-12T22:46:43.313Z,6.50
2022-09-12T22:49:14.234Z,4.40
2022-09-12T22:51:44.960Z,4.10
2022-09-12T22:54:15.962Z,4.70
2022-09-12T22:56:47.050Z,4.30
2022-09-12T22:59:18.442Z,4.00
2022-09-12T23:01:49.606Z,4.70
2022-09-12T23:04:20.312Z,4.40
2022-09-12T23:06:51.134Z,3.40
2022-09-12T23:09:22.031Z,4.10
2022-09-12T23:11:53.065Z,4.50
2022-09-12T23:14:23.693Z,4.70
2022-09-12T23:16:54.476Z,3.90
2022-09-12T23:19:25.200Z,4.30
2022-09-12T23:21:56.278Z,5.30
2022-09-12T23:24:27.094Z,5.10
2022-09-12T23:26:57.711Z,4.20
2022-09-12T23:29:28.897Z,4.60
2022-09-12T23:31:59.637Z,5.20
2022-09-12T23:34:31.089Z,4.90
2022-09-12T23:37:01.827Z,4.50
2022-09-12T23:39:32.872Z,4.50
2022-09-12T23:42:03.715Z,4.50
2022-09-12T23:44:34.657Z,4.80
2022-09-12T23:47:05.601Z,4.60
2022-09-12T23:49:36.245Z,3.80
2022-09-12T23:52:07.349Z,6.40
2022-09-12T23:54:38.015Z,4.00
2022-09-12T23:57:08.858Z,3.90
2022-09-12T23:59:39.450Z,4.30
